Time;durP1;ratioP1;P1;durP2;ratioP2;P2;SDS_P1;SDS_P2;PMS_P1;PMS_P2;Temp;Humidity;BMP_temperature;BMP_pressure;BME280_temperature;BME280_humidity;BME280_pressure;Samples;Min_cycle;Max_cycle;Signal;HPM_P1;HPM_P2
2022/06/28 00:02:00;;;;;;;5.30;4.80;;;;;;;17.02;100.00;96666.88;5033891;28;20465;-75
2022/06/28 00:04:27;;;;;;;5.60;5.10;;;;;;;17.33;100.00;96706.63;5032065;28;20437;-75
2022/06/28 00:06:54;;;;;;;5.07;4.67;;;;;;;17.51;100.00;96717.59;5033915;28;20430;-75
2022/06/28 00:09:21;;;;;;;5.43;5.03;;;;;;;17.01;100.00;96676.78;5032365;28;20862;-75
2022/06/28 00:11:49;;;;;;;5.57;5.17;;;;;;;17.42;100.00;96709.06;5041498;28;20454;-74
2022/06/28 00:17:01;;;;;;;4.60;4.30;;;;;;;16.95;100.00;96688.88;5023742;28;20965;-75
2022/06/28 00:19:28;;;;;;;4.97;4.57;;;;;;;17.06;100.00;96676.47;5032075;28;20481;-75
2022/06/28 00:21:55;;;;;;;5.03;4.53;;;;;;;16.92;100.00;96662.91;5033261;28;20450;-75
2022/06/28 00:24:23;;;;;;;6.00;4.80;;;;;;;17.32;100.00;96688.28;5031992;28;20488;-74
2022/06/28 00:26:50;;;;;;;5.40;4.90;;;;;;;17.43;100.00;96684.63;5019789;28;20526;-74
2022/06/28 00:29:17;;;;;;;4.93;4.53;;;;;;;17.29;100.00;96675.66;5049657;28;20437;-75
2022/06/28 00:31:44;;;;;;;4.70;4.20;;;;;;;17.05;100.00;96640.19;5040909;28;20486;-75
2022/06/28 00:34:11;;;;;;;4.43;4.13;;;;;;;17.34;100.00;96680.69;5031882;28;20430;-74
2022/06/28 00:36:38;;;;;;;5.00;4.60;;;;;;;17.29;100.00;96657.72;5033181;28;20456;-75
2022/06/28 00:39:06;;;;;;;5.47;5.03;;;;;;;17.67;100.00;96701.38;5033109;28;20504;-75
2022/06/28 00:41:34;;;;;;;4.80;4.47;;;;;;;17.65;100.00;96690.28;5031496;28;20467;-75
2022/06/28 00:44:02;;;;;;;4.77;4.37;;;;;;;17.67;100.00;96677.31;5038961;28;20438;-74
2022/06/28 00:46:30;;;;;;;4.93;4.60;;;;;;;17.34;100.00;96669.97;5051664;28;20952;-74
2022/06/28 00:48:57;;;;;;;6.87;4.70;;;;;;;17.08;100.00;96657.41;5046129;28;20449;-74
2022/06/28 00:51:24;;;;;;;4.93;4.53;;;;;;;17.51;100.00;96725.63;5032789;28;20454;-75
2022/06/28 00:53:53;;;;;;;5.43;4.93;;;;;;;17.68;100.00;96726.97;5031769;28;20446;-75
2022/06/28 00:56:21;;;;;;;4.60;4.30;;;;;;;17.70;100.00;96746.91;5034327;28;20423;-75
2022/06/28 00:58:48;;;;;;;5.27;4.80;;;;;;;17.60;100.00;96731.47;5044097;28;20455;-75
2022/06/28 01:01:15;;;;;;;4.83;4.47;;;;;;;17.34;100.00;96766.22;5031884;28;20459;-75
2022/06/28 01:03:42;;;;;;;9.40;4.90;;;;;;;17.44;100.00;96730.84;5040005;28;20966;-75
2022/06/28 01:06:10;;;;;;;5.23;4.83;;;;;;;17.19;100.00;96767.13;5019884;28;20942;-75
2022/06/28 01:08:37;;;;;;;4.70;4.30;;;;;;;16.81;100.00;96747.41;5015206;28;20488;-75
2022/06/28 01:11:21;;;;;;;5.70;5.20;;;;;;;16.95;100.00;96773.59;5014940;28;20454;-75
2022/06/28 01:13:59;;;;;;;5.60;5.20;;;;;;;16.97;100.00;96758.78;5026301;28;20480;-74
2022/06/28 01:16:30;;;;;;;7.67;4.93;;;;;;;17.20;100.00;96756.06;5043671;28;20957;-75
2022/06/28 01:19:08;;;;;;;4.83;4.37;;;;;;;17.51;100.00;96781.00;5030965;28;20504;-74
2022/06/28 01:21:37;;;;;;;5.40;5.00;;;;;;;17.37;100.00;96765.53;5015391;28;20466;-75
2022/06/28 01:24:05;;;;;;;5.53;4.87;;;;;;;17.32;100.00;96761.22;5013792;28;20454;-74
2022/06/28 01:26:46;;;;;;;4.83;4.50;;;;;;;17.43;100.00;96764.84;5031599;28;20431;-74
2022/06/28 01:29:16;;;;;;;4.90;4.50;;;;;;;17.33;100.00;96768.13;5014698;28;20442;-74
2022/06/28 01:32:06;;;;;;;5.37;4.87;;;;;;;17.08;100.00;96743.66;5022102;28;20999;-75
2022/06/28 01:34:34;;;;;;;5.37;4.87;;;;;;;17.07;100.00;96736.78;5031185;28;20492;-74
2022/06/28 01:37:01;;;;;;;5.13;4.73;;;;;;;16.98;100.00;96725.59;5014336;28;20473;-75
2022/06/28 01:39:29;;;;;;;4.87;4.47;;;;;;;16.84;100.00;96728.03;5029965;28;20470;-75
2022/06/28 01:41:56;;;;;;;5.20;4.80;;;;;;;16.69;100.00;96704.88;5001462;28;20529;-75
2022/06/28 01:44:26;;;;;;;4.67;4.33;;;;;;;17.05;100.00;96770.34;5030965;28;20439;-75
2022/06/28 01:47:35;;;;;;;5.73;5.33;;;;;;;16.95;100.00;96768.25;5020815;28;20575;-75
2022/06/28 01:50:17;;;;;;;5.53;5.10;;;;;;;16.66;100.00;96738.38;5032026;28;20452;-74
2022/06/28 01:52:46;;;;;;;5.23;4.80;;;;;;;16.77;100.00;96757.28;5030348;28;20435;-75
2022/06/28 01:55:32;;;;;;;5.57;5.07;;;;;;;16.91;100.00;96778.88;5019635;28;20429;-74
2022/06/28 01:58:03;;;;;;;5.43;5.03;;;;;;;17.00;100.00;96784.00;5014930;28;20450;-75
2022/06/28 02:00:35;;;;;;;4.93;4.53;;;;;;;16.74;100.00;96733.97;5030242;28;20478;-75
2022/06/28 02:03:02;;;;;;;4.90;4.50;;;;;;;16.68;100.00;96778.09;5014271;28;20442;-75
2022/06/28 02:05:47;;;;;;;5.47;4.97;;;;;;;16.98;100.00;96783.59;5031334;28;20425;-74
2022/06/28 02:08:14;;;;;;;5.60;5.10;;;;;;;16.91;100.00;96762.88;5030174;28;20437;-74
2022/06/28 02:10:59;;;;;;;5.57;5.10;;;;;;;16.95;100.00;96761.00;5029976;28;20528;-74
2022/06/28 02:13:39;;;;;;;4.80;4.40;;;;;;;17.02;100.00;96782.53;5035888;28;20594;-74
2022/06/28 02:16:06;;;;;;;5.27;4.80;;;;;;;16.76;100.00;96769.88;5021032;28;20491;-74
2022/06/28 02:18:33;;;;;;;4.93;4.53;;;;;;;16.67;100.00;96780.00;5039428;28;20817;-74
2022/06/28 02:21:05;;;;;;;6.97;5.57;;;;;;;16.45;100.00;96760.13;5016735;28;20596;-75
2022/06/28 02:23:32;;;;;;;4.87;4.57;;;;;;;16.31;100.00;96759.09;5041809;28;20945;-74
2022/06/28 02:25:59;;;;;;;5.13;4.57;;;;;;;16.20;100.00;96772.22;5031107;28;20438;-74
2022/06/28 02:28:25;;;;;;;5.17;4.77;;;;;;;16.13;100.00;96777.41;5042048;28;20442;-75
2022/06/28 02:30:54;;;;;;;5.63;5.23;;;;;;;16.17;100.00;96763.03;5036302;28;20465;-75
2022/06/28 02:33:21;;;;;;;9.10;4.80;;;;;;;16.24;100.00;96770.38;5037459;28;20438;-74
2022/06/28 02:41:32;;;;;;;5.30;4.70;;;;;;;16.49;100.00;96776.22;5052487;28;20986;-73
2022/06/28 02:43:59;;;;;;;4.50;4.20;;;;;;;16.52;100.00;96797.63;5043236;28;20448;-73
2022/06/28 02:46:25;;;;;;;4.87;4.47;;;;;;;16.25;100.00;96790.63;5026493;28;20433;-73
2022/06/28 02:48:52;;;;;;;4.53;4.13;;;;;;;16.31;100.00;96804.47;5029680;28;20525;-73
2022/06/28 02:51:23;;;;;;;5.73;4.40;;;;;;;16.16;100.00;96787.38;5042807;28;20465;-73
2022/06/28 02:53:52;;;;;;;7.87;5.70;;;;;;;16.15;100.00;96791.94;5037189;28;20963;-73
2022/06/28 02:56:20;;;;;;;5.37;4.33;;;;;;;16.39;100.00;96806.91;5034434;28;20540;-74
2022/06/28 02:58:48;;;;;;;6.13;5.60;;;;;;;16.27;100.00;96793.69;5029332;28;20969;-74
2022/06/28 03:01:15;;;;;;;5.57;5.17;;;;;;;16.25;100.00;96791.38;5042382;28;20476;-73
2022/06/28 03:03:42;;;;;;;5.53;5.03;;;;;;;16.18;100.00;96777.13;5029409;28;20442;-74
2022/06/28 03:06:10;;;;;;;5.77;5.37;;;;;;;16.00;100.00;96784.75;5029546;28;20458;-74
2022/06/28 03:08:37;;;;;;;4.50;4.13;;;;;;;15.90;100.00;96788.78;5029364;28;20446;-74
2022/06/28 03:11:04;;;;;;;6.43;5.70;;;;;;;15.90;100.00;96780.78;5018764;28;20474;-74
2022/06/28 03:13:31;;;;;;;5.87;4.90;;;;;;;16.10;100.00;96791.44;5039658;28;20442;-74
2022/06/28 03:15:58;;;;;;;4.63;4.23;;;;;;;15.86;100.00;96760.47;5029499;28;20508;-74
2022/06/28 03:18:24;;;;;;;7.93;4.73;;;;;;;15.56;100.00;96752.19;5029590;28;20438;-74
2022/06/28 03:20:51;;;;;;;5.73;5.33;;;;;;;15.83;100.00;96788.63;5016609;28;20896;-74
2022/06/28 03:23:18;;;;;;;4.30;4.00;;;;;;;15.63;100.00;96787.81;5039189;28;20442;-74
2022/06/28 03:25:46;;;;;;;5.00;4.60;;;;;;;15.73;100.00;96791.81;5042930;28;20442;-74
2022/06/28 03:28:13;;;;;;;5.23;4.83;;;;;;;15.68;100.00;96751.34;5040373;28;20441;-73
2022/06/28 03:30:39;;;;;;;5.10;4.60;;;;;;;15.95;100.00;96775.16;5019612;28;20460;-73
2022/06/28 03:33:06;;;;;;;5.43;5.03;;;;;;;16.08;100.00;96775.81;5039699;28;20437;-73
2022/06/28 03:35:35;;;;;;;4.80;4.50;;;;;;;16.19;100.00;96784.03;5044194;28;20825;-73
2022/06/28 03:38:02;;;;;;;6.50;6.00;;;;;;;16.22;100.00;96788.66;5041038;28;20520;-73
2022/06/28 03:40:55;;;;;;;5.03;4.50;;;;;;;16.04;100.00;96758.97;5025964;28;20477;-73
2022/06/28 03:43:23;;;;;;;6.53;5.40;;;;;;;16.01;100.00;96769.53;5019430;28;20523;-73
2022/06/28 03:45:51;;;;;;;5.07;4.67;;;;;;;15.91;100.00;96768.22;5024611;28;20450;-73
2022/06/28 03:48:31;;;;;;;6.07;5.50;;;;;;;15.80;100.00;96777.88;5042344;28;20454;-73
2022/06/28 03:51:37;;;;;;;14.63;5.83;;;;;;;15.53;100.00;96787.53;5008897;28;20451;-73
2022/06/28 03:54:34;;;;;;;8.13;5.60;;;;;;;14.95;100.00;96758.00;4988411;28;20942;-73
2022/06/28 03:57:25;;;;;;;5.40;4.90;;;;;;;15.30;100.00;96774.84;5025665;28;20480;-73
2022/06/28 03:59:52;;;;;;;5.10;4.70;;;;;;;15.51;100.00;96795.88;5035842;28;20996;-73
2022/06/28 04:02:19;;;;;;;6.87;5.17;;;;;;;15.79;100.00;96789.66;5025304;28;20518;-73
2022/06/28 04:04:46;;;;;;;5.40;5.00;;;;;;;15.71;100.00;96782.63;5016311;28;20427;-73
2022/06/28 04:07:13;;;;;;;5.93;5.30;;;;;;;15.65;100.00;96796.22;5043341;28;20437;-73
2022/06/28 04:09:42;;;;;;;6.63;6.03;;;;;;;15.53;100.00;96782.97;5022991;28;20440;-73
2022/06/28 04:12:09;;;;;;;5.87;5.47;;;;;;;15.35;100.00;96768.47;5041733;28;20461;-73
2022/06/28 04:14:36;;;;;;;6.07;5.67;;;;;;;15.72;100.00;96789.50;5032654;28;20423;-73
2022/06/28 04:17:03;;;;;;;6.00;5.50;;;;;;;15.90;100.00;96820.00;5044434;28;20437;-73
2022/06/28 04:19:44;;;;;;;5.97;5.40;;;;;;;15.69;100.00;96782.19;5012448;28;20473;-73
2022/06/28 04:22:11;;;;;;;5.97;5.57;;;;;;;15.80;100.00;96815.22;5019519;28;20439;-73
2022/06/28 04:24:37;;;;;;;6.50;5.90;;;;;;;15.58;100.00;96787.25;5045391;28;20450;-73
2022/06/28 04:27:13;;;;;;;7.20;6.57;;;;;;;15.54;100.00;96803.19;5046363;28;20433;-72
2022/06/28 04:29:39;;;;;;;6.10;5.60;;;;;;;15.61;100.00;96818.56;5041286;28;20444;-73
2022/06/28 04:32:16;;;;;;;6.57;6.07;;;;;;;15.61;100.00;96787.38;5039158;28;21059;-73
2022/06/28 04:34:43;;;;;;;6.50;6.00;;;;;;;15.84;100.00;96819.50;5042651;28;20445;-73
2022/06/28 04:37:10;;;;;;;6.27;5.80;;;;;;;15.83;100.00;96777.94;5029532;28;21154;-72
2022/06/28 04:39:37;;;;;;;5.53;5.13;;;;;;;16.64;100.00;96814.63;5032178;28;20442;-73
2022/06/28 04:42:14;;;;;;;5.73;5.33;;;;;;;16.83;100.00;96818.06;5017257;28;20793;-73
2022/06/28 04:44:41;;;;;;;6.57;6.07;;;;;;;17.13;100.00;96826.22;5045572;28;20425;-73
2022/06/28 04:47:11;;;;;;;5.83;5.43;;;;;;;16.90;100.00;96817.41;5038640;28;20438;-73
2022/06/28 04:49:39;;;;;;;5.97;5.30;;;;;;;17.13;100.00;96806.75;5039100;28;20542;-73
2022/06/28 04:52:07;;;;;;;6.57;5.93;;;;;;;17.27;100.00;96815.00;5029058;28;20479;-73
2022/06/28 04:54:38;;;;;;;6.87;6.30;;;;;;;17.23;100.00;96848.13;5032391;28;20562;-73
2022/06/28 04:57:24;;;;;;;6.20;5.23;;;;;;;17.03;100.00;96850.84;5043667;28;21133;-72
2022/06/28 05:00:06;;;;;;;5.60;5.13;;;;;;;16.66;100.00;96831.06;5045123;28;20472;-73
2022/06/28 05:02:38;;;;;;;6.47;5.97;;;;;;;16.64;100.00;96839.41;5028424;28;20445;-72
2022/06/28 05:05:13;;;;;;;6.30;5.80;;;;;;;16.34;100.00;96823.22;5026264;28;21056;-73
2022/06/28 05:07:41;;;;;;;6.10;5.60;;;;;;;16.66;100.00;96847.06;5038064;28;20451;-73
2022/06/28 05:10:16;;;;;;;10.70;5.80;;;;;;;16.67;100.00;96822.72;5022586;28;20447;-73
2022/06/28 05:12:53;;;;;;;5.30;4.90;;;;;;;17.02;100.00;96841.31;5044123;28;20977;-73
2022/06/28 05:15:19;;;;;;;5.67;5.27;;;;;;;16.82;100.00;96810.41;5031817;28;20496;-73
2022/06/28 05:17:59;;;;;;;8.53;5.97;;;;;;;16.76;100.00;96807.25;5031530;28;20449;-73
2022/06/28 05:20:26;;;;;;;5.40;5.00;;;;;;;16.91;100.00;96823.53;5044547;28;20519;-73
2022/06/28 05:22:53;;;;;;;5.87;5.40;;;;;;;16.96;100.00;96813.34;5037987;28;20445;-73
2022/06/28 05:25:52;;;;;;;6.67;5.90;;;;;;;17.03;100.00;96844.75;5023224;28;20441;-72
2022/06/28 05:28:19;;;;;;;6.20;5.70;;;;;;;17.06;100.00;96838.69;5039911;28;20450;-73
2022/06/28 05:30:46;;;;;;;7.10;6.47;;;;;;;17.00;100.00;96819.50;5044545;28;20462;-73
2022/06/28 05:33:13;;;;;;;10.67;6.10;;;;;;;17.11;100.00;96819.69;5026324;28;20433;-73
2022/06/28 05:35:39;;;;;;;6.67;6.17;;;;;;;17.23;100.00;96832.88;5021680;28;20438;-73
2022/06/28 05:38:07;;;;;;;6.30;5.80;;;;;;;17.11;100.00;96833.06;5039321;28;21016;-73
2022/06/28 05:40:34;;;;;;;6.73;6.27;;;;;;;17.05;100.00;96829.13;5045388;28;20808;-73
2022/06/28 05:43:01;;;;;;;6.13;5.63;;;;;;;17.22;100.00;96854.59;5044847;28;20441;-72
2022/06/28 05:45:28;;;;;;;6.67;6.17;;;;;;;17.02;100.00;96829.84;5025741;28;20441;-73
2022/06/28 05:47:54;;;;;;;6.20;5.70;;;;;;;17.05;100.00;96831.78;5034496;28;20446;-71
2022/06/28 05:50:21;;;;;;;7.20;6.70;;;;;;;16.59;100.00;96841.63;5031234;28;20442;-72
2022/06/28 05:52:48;;;;;;;7.90;5.83;;;;;;;16.71;100.00;96841.50;5042918;28;20445;-75
2022/06/28 05:55:15;;;;;;;10.20;8.20;;;;;;;16.65;100.00;96853.53;5021106;28;20445;-75
2022/06/28 05:57:42;;;;;;;9.03;8.23;;;;;;;16.69;100.00;96879.22;5018905;28;20436;-75
2022/06/28 06:00:09;;;;;;;14.43;9.40;;;;;;;16.61;100.00;96874.84;5040223;28;20502;-76
2022/06/28 06:02:42;;;;;;;11.00;10.00;;;;;;;16.45;100.00;96879.47;5043678;28;20452;-75
2022/06/28 06:05:11;;;;;;;12.20;9.80;;;;;;;16.36;100.00;96885.00;5024275;28;20474;-75
2022/06/28 06:07:44;;;;;;;11.60;10.50;;;;;;;16.19;100.00;96864.06;5011429;28;20807;-75
2022/06/28 06:10:11;;;;;;;10.07;9.27;;;;;;;16.46;100.00;96875.69;5025766;28;20650;-75
2022/06/28 06:12:38;;;;;;;11.47;10.47;;;;;;;16.77;100.00;96899.59;5028791;28;20867;-75
2022/06/28 06:15:06;;;;;;;13.23;11.10;;;;;;;16.86;100.00;96886.03;5041361;28;20485;-75
2022/06/28 06:17:33;;;;;;;11.57;10.37;;;;;;;16.78;100.00;96887.03;5044078;28;20441;-75
2022/06/28 06:20:06;;;;;;;11.60;10.50;;;;;;;16.71;100.00;96882.31;5040315;28;20561;-75
2022/06/28 06:22:34;;;;;;;11.23;10.07;;;;;;;17.22;100.00;96886.69;5046784;28;21011;-76
2022/06/28 06:25:07;;;;;;;10.40;9.40;;;;;;;16.97;100.00;96896.94;5025319;28;20437;-75
2022/06/28 06:27:43;;;;;;;11.10;10.10;;;;;;;16.81;100.00;96879.06;5036920;28;20511;-75
2022/06/28 06:30:11;;;;;;;10.17;9.37;;;;;;;16.94;100.00;96870.91;5037886;28;20557;-74
2022/06/28 06:32:54;;;;;;;9.27;8.27;;;;;;;17.17;100.00;96898.44;5027569;28;20538;-72
2022/06/28 06:35:39;;;;;;;7.70;7.00;;;;;;;17.69;100.00;96903.19;5037646;28;20492;-72
2022/06/28 06:38:06;;;;;;;10.10;6.83;;;;;;;18.03;100.00;96900.66;5040269;28;20450;-74
2022/06/28 06:40:33;;;;;;;7.67;7.07;;;;;;;18.14;100.00;96911.47;5026739;28;20899;-74
2022/06/28 06:43:00;;;;;;;7.57;7.07;;;;;;;17.97;100.00;96884.13;5041728;28;20437;-74
2022/06/28 06:45:31;;;;;;;7.33;6.67;;;;;;;18.38;100.00;96921.78;5037037;28;20444;-74
2022/06/28 06:47:57;;;;;;;7.33;6.67;;;;;;;18.38;100.00;96926.38;5038255;28;20438;-74
2022/06/28 06:50:24;;;;;;;5.73;5.23;;;;;;;18.02;100.00;96891.81;5027385;28;20844;-74
2022/06/28 06:52:52;;;;;;;6.20;5.80;;;;;;;17.86;100.00;96922.53;5027511;28;20859;-74
2022/06/28 06:55:19;;;;;;;9.63;6.93;;;;;;;17.63;100.00;96912.63;5037970;28;20503;-75
2022/06/28 06:57:46;;;;;;;7.60;7.00;;;;;;;17.44;100.00;96875.22;5021668;28;20465;-76
2022/06/28 07:00:13;;;;;;;6.93;6.30;;;;;;;17.79;100.00;96893.78;5030480;28;20454;-74
2022/06/28 07:02:43;;;;;;;7.50;6.90;;;;;;;18.16;100.00;96904.66;5030165;28;20443;-74
2022/06/28 07:05:11;;;;;;;6.53;6.07;;;;;;;18.09;100.00;96901.88;5030092;28;20438;-74
2022/06/28 07:07:39;;;;;;;7.10;6.50;;;;;;;18.10;100.00;96908.00;5030544;28;20434;-75
2022/06/28 07:10:06;;;;;;;7.17;6.57;;;;;;;17.77;100.00;96904.06;5050334;28;20496;-75
2022/06/28 07:12:33;;;;;;;8.00;7.40;;;;;;;17.36;100.00;96886.91;5036723;28;20961;-74
2022/06/28 07:15:00;;;;;;;7.43;6.73;;;;;;;17.44;100.00;96862.63;5030290;28;20430;-74
2022/06/28 07:17:33;;;;;;;6.83;6.33;;;;;;;17.61;100.00;96864.03;5032816;28;20438;-75
2022/06/28 07:20:00;;;;;;;6.13;5.63;;;;;;;18.34;100.00;96891.50;5041616;28;20450;-75
2022/06/28 07:22:26;;;;;;;5.87;5.43;;;;;;;18.85;100.00;96881.06;5044206;28;21042;-75
2022/06/28 07:24:56;;;;;;;5.97;5.57;;;;;;;19.44;100.00;96860.56;5014860;28;20438;-74
2022/06/28 07:27:24;;;;;;;6.03;5.50;;;;;;;19.22;100.00;96874.16;5042988;28;20481;-75
2022/06/28 07:29:50;;;;;;;5.53;5.03;;;;;;;19.08;100.00;96856.00;5023015;28;20819;-75
2022/06/28 07:32:18;;;;;;;6.30;5.80;;;;;;;18.84;100.00;96876.84;5019177;28;20525;-74
2022/06/28 07:34:46;;;;;;;6.17;5.77;;;;;;;19.23;100.00;96860.41;5023361;28;20887;-74
2022/06/28 07:37:14;;;;;;;5.87;5.37;;;;;;;19.34;100.00;96893.44;5046811;28;20438;-74
2022/06/28 07:39:45;;;;;;;7.97;6.73;;;;;;;19.16;100.00;96893.25;5035981;28;20842;-74
2022/06/28 07:42:35;;;;;;;6.70;6.20;;;;;;;19.55;100.00;96870.66;5040226;28;20507;-74
2022/06/28 07:45:14;;;;;;;6.33;5.83;;;;;;;20.02;100.00;96897.44;5057471;28;20409;-74
2022/06/28 07:47:41;;;;;;;6.13;5.63;;;;;;;19.88;100.00;96893.91;5045828;28;20457;-73
2022/06/28 07:52:59;;;;;;;5.73;5.13;;;;;;;19.94;100.00;96893.19;5035514;28;20466;-74
2022/06/28 07:55:32;;;;;;;6.90;5.67;;;;;;;19.82;100.00;96873.94;5020990;28;20450;-74
2022/06/28 07:58:19;;;;;;;7.13;5.83;;;;;;;19.51;100.00;96818.88;5036487;28;20488;-75
2022/06/28 08:00:46;;;;;;;4.97;4.57;;;;;;;20.23;100.00;96880.72;5013352;28;20545;-75
2022/06/28 08:03:17;;;;;;;5.20;4.90;;;;;;;20.91;100.00;96915.97;5036312;28;20479;-75
2022/06/28 08:05:44;;;;;;;6.13;5.63;;;;;;;20.27;100.00;96854.63;5025682;28;21059;-74
2022/06/28 08:08:12;;;;;;;6.57;5.60;;;;;;;20.53;100.00;96880.50;5045979;28;20791;-74
2022/06/28 08:10:40;;;;;;;4.90;4.60;;;;;;;20.03;100.00;96868.69;5027228;28;20834;-74
2022/06/28 08:13:09;;;;;;;6.07;5.50;;;;;;;20.20;100.00;96899.50;5039036;28;20857;-74
2022/06/28 08:15:44;;;;;;;6.63;6.13;;;;;;;20.10;100.00;96908.25;5051641;28;20420;-74
2022/06/28 08:18:13;;;;;;;5.60;5.10;;;;;;;20.18;100.00;96915.22;5039968;28;20449;-74
2022/06/28 08:20:40;;;;;;;5.97;5.57;;;;;;;20.91;100.00;96918.66;5038358;28;20997;-74
2022/06/28 08:23:08;;;;;;;5.57;5.17;;;;;;;20.59;100.00;96927.38;5051923;28;20429;-74
2022/06/28 08:25:36;;;;;;;5.47;5.07;;;;;;;20.23;100.00;96883.41;5033491;28;20441;-73
2022/06/28 08:28:03;;;;;;;6.47;5.23;;;;;;;20.93;100.00;96911.75;5041308;28;20906;-75
2022/06/28 08:30:30;;;;;;;6.87;5.00;;;;;;;21.22;100.00;96893.00;5038907;28;20458;-74
2022/06/28 08:32:58;;;;;;;6.07;5.30;;;;;;;20.48;100.00;96888.16;5026473;28;20604;-74
2022/06/28 08:35:25;;;;;;;5.10;4.70;;;;;;;21.46;100.00;96896.91;5045252;28;20474;-74
2022/06/28 08:37:52;;;;;;;4.20;3.90;;;;;;;21.56;100.00;96914.22;5041510;28;20515;-74
2022/06/28 08:40:22;;;;;;;5.77;5.10;;;;;;;20.94;100.00;96907.91;5018743;28;21323;-73
2022/06/28 08:42:54;;;;;;;6.70;5.57;;;;;;;21.72;100.00;96901.16;5041968;28;20843;-74
2022/06/28 08:45:21;;;;;;;4.83;4.47;;;;;;;22.36;100.00;96930.75;5021886;28;20434;-73
2022/06/28 08:47:52;;;;;;;4.40;4.00;;;;;;;21.55;100.00;96921.53;5051708;28;20879;-73
2022/06/28 08:50:28;;;;;;;4.43;4.13;;;;;;;21.90;100.00;96928.06;5038247;28;20445;-73
2022/06/28 08:52:57;;;;;;;4.10;3.80;;;;;;;21.81;100.00;96888.09;5038108;28;20881;-73
2022/06/28 08:55:24;;;;;;;4.83;4.43;;;;;;;21.82;100.00;96898.47;5034903;28;20558;-74
2022/06/28 08:57:51;;;;;;;3.23;3.03;;;;;;;22.04;100.00;96914.63;5052487;28;20414;-74
2022/06/28 09:00:19;;;;;;;3.90;3.60;;;;;;;22.21;100.00;96918.47;5038713;28;20507;-74
2022/06/28 09:02:51;;;;;;;4.40;4.10;;;;;;;22.22;100.00;96910.00;5037788;28;20480;-74
2022/06/28 09:05:21;;;;;;;4.70;4.30;;;;;;;22.45;97.67;96924.97;5042783;28;20422;-73
2022/06/28 09:07:50;;;;;;;5.03;4.63;;;;;;;22.56;94.70;96904.13;5047035;28;20449;-73
2022/06/28 09:10:18;;;;;;;4.23;3.83;;;;;;;22.46;95.89;96913.81;5041571;28;20485;-74
2022/06/28 09:13:15;;;;;;;4.20;3.90;;;;;;;21.80;100.00;96870.41;5030354;28;21203;-74
2022/06/28 09:15:48;;;;;;;3.13;2.93;;;;;;;22.02;93.47;96904.22;5015485;28;20492;-74
2022/06/28 09:18:16;;;;;;;4.23;3.87;;;;;;;21.58;98.07;96887.69;5042766;28;20454;-74
2022/06/28 09:20:43;;;;;;;3.97;3.60;;;;;;;21.80;97.84;96900.78;5044007;28;20453;-74
2022/06/28 09:23:29;;;;;;;3.67;3.47;;;;;;;23.28;91.30;96908.84;5039454;28;20437;-74
2022/06/28 09:26:02;;;;;;;3.67;3.37;;;;;;;23.40;88.76;96894.13;5032836;28;20430;-74
2022/06/28 09:28:31;;;;;;;3.53;3.00;;;;;;;23.37;85.56;96881.41;5030708;28;20996;-74
2022/06/28 09:31:20;;;;;;;3.43;3.23;;;;;;;23.23;88.22;96903.06;5036705;28;20453;-74
2022/06/28 09:33:59;;;;;;;4.67;3.00;;;;;;;23.77;81.96;96903.50;5037238;28;20442;-74
2022/06/28 09:36:28;;;;;;;4.60;2.60;;;;;;;23.25;85.05;96892.69;5040936;28;20812;-74
2022/06/28 09:38:56;;;;;;;3.87;3.20;;;;;;;22.63;86.80;96887.94;5044028;28;20856;-74
2022/06/28 09:41:28;;;;;;;3.03;2.80;;;;;;;23.07;84.88;96892.00;5030545;28;20854;-74
2022/06/28 09:43:54;;;;;;;3.30;3.10;;;;;;;22.49;87.46;96896.84;5036210;28;20453;-74
2022/06/28 09:46:26;;;;;;;3.90;3.60;;;;;;;22.81;84.11;96880.53;5037918;28;20457;-74
2022/06/28 09:49:02;;;;;;;3.03;2.83;;;;;;;22.54;85.10;96879.50;5043617;28;20449;-74
2022/06/28 09:51:30;;;;;;;3.13;2.93;;;;;;;22.86;81.52;96901.75;5027519;28;20554;-74
2022/06/28 09:54:06;;;;;;;2.80;2.60;;;;;;;22.98;78.72;96887.81;5030739;28;20480;-74
2022/06/28 09:56:54;;;;;;;2.57;2.47;;;;;;;23.11;80.07;96895.47;5030268;28;20437;-74
2022/06/28 09:59:23;;;;;;;2.80;2.60;;;;;;;22.76;77.62;96888.28;5010201;28;20527;-75
2022/06/28 10:01:52;;;;;;;2.50;2.30;;;;;;;22.24;76.13;96874.59;5049171;28;20519;-73
2022/06/28 10:04:21;;;;;;;2.67;2.47;;;;;;;22.42;76.74;96872.59;5033452;28;20437;-74
2022/06/28 10:06:48;;;;;;;2.83;2.60;;;;;;;22.62;75.91;96840.56;5051374;28;20429;-73
2022/06/28 10:09:17;;;;;;;2.70;2.50;;;;;;;22.82;76.06;96873.22;5037930;28;20931;-75
2022/06/28 10:17:47;;;;;;;2.80;2.60;;;;;;;23.06;71.06;96868.88;5029974;28;20415;-74
2022/06/28 10:20:36;;;;;;;4.87;2.73;;;;;;;24.03;69.65;96870.44;5017482;28;20492;-74
2022/06/28 10:23:23;;;;;;;2.70;2.50;;;;;;;24.06;69.31;96880.47;5010142;28;20479;-74
2022/06/28 10:26:11;;;;;;;2.80;2.70;;;;;;;23.84;69.47;96882.59;5020584;28;20987;-74
2022/06/28 10:28:46;;;;;;;2.90;2.70;;;;;;;23.73;70.41;96876.53;5043083;28;20432;-74
2022/06/28 10:31:22;;;;;;;4.23;2.40;;;;;;;23.67;68.72;96871.97;5029852;28;20454;-73
2022/06/28 10:34:14;;;;;;;2.60;2.40;;;;;;;23.56;68.60;96875.47;5029962;28;21026;-74
2022/06/28 10:36:42;;;;;;;2.90;2.70;;;;;;;24.62;67.61;96872.19;5042898;28;20438;-73
2022/06/28 10:39:10;;;;;;;2.67;2.47;;;;;;;23.54;66.24;96872.41;5023071;28;20498;-74
2022/06/28 10:42:14;;;;;;;3.00;2.80;;;;;;;24.31;65.21;96866.75;5033529;28;20568;-73
2022/06/28 10:44:40;;;;;;;2.70;1.67;;;;;;;24.45;65.47;96868.53;5036062;28;20438;-74
2022/06/28 10:47:07;;;;;;;2.60;2.50;;;;;;;24.65;64.54;96860.53;5048539;28;20978;-74
2022/06/28 10:49:44;;;;;;;2.77;2.57;;;;;;;25.29;63.28;96855.06;5037666;28;20458;-74
2022/06/28 10:52:22;;;;;;;2.67;2.47;;;;;;;24.26;62.58;96850.16;5038088;28;20437;-74
2022/06/28 10:54:52;;;;;;;2.20;2.00;;;;;;;23.88;64.89;96832.00;5014711;28;20797;-74
2022/06/28 10:57:32;;;;;;;2.40;2.20;;;;;;;24.18;64.10;96820.53;5022223;28;21045;-73
2022/06/28 11:00:04;;;;;;;2.33;2.13;;;;;;;23.78;63.75;96821.31;5050532;28;20460;-73
2022/06/28 11:02:57;;;;;;;3.20;2.90;;;;;;;24.62;64.69;96828.91;5040834;28;20450;-73
2022/06/28 11:05:51;;;;;;;3.60;2.50;;;;;;;24.43;63.84;96833.00;5039165;28;20827;-74
2022/06/28 11:08:42;;;;;;;2.70;2.50;;;;;;;24.87;62.54;96829.34;5032802;28;20425;-73
2022/06/28 11:11:09;;;;;;;4.00;2.30;;;;;;;25.55;60.69;96810.16;5046621;28;20462;-74
2022/06/28 11:13:36;;;;;;;2.63;2.47;;;;;;;24.53;64.51;96788.06;5044592;28;20433;-73
2022/06/28 11:16:03;;;;;;;2.70;2.50;;;;;;;24.72;63.98;96790.91;5053378;28;20429;-73
2022/06/28 11:18:30;;;;;;;3.93;3.67;;;;;;;24.81;65.23;96790.38;5043024;28;20438;-74
2022/06/28 11:20:57;;;;;;;6.10;3.63;;;;;;;24.80;65.72;96801.63;5030067;28;20469;-73
2022/06/28 11:23:27;;;;;;;3.97;3.20;;;;;;;24.76;63.65;96817.91;5044043;28;20848;-73
2022/06/28 11:28:56;;;;;;;3.77;3.47;;;;;;;24.28;65.09;96807.25;5033374;28;20473;-75
2022/06/28 11:31:25;;;;;;;3.50;3.30;;;;;;;24.16;65.04;96792.34;5016893;28;20462;-73
2022/06/28 11:33:52;;;;;;;3.80;3.50;;;;;;;24.12;65.82;96799.72;5029957;28;20438;-73
2022/06/28 11:36:22;;;;;;;4.00;3.70;;;;;;;24.51;65.18;96799.28;5042766;28;20528;-73
2022/06/28 11:38:49;;;;;;;4.30;3.70;;;;;;;24.04;65.45;96793.66;5039213;28;20957;-74
2022/06/28 11:41:30;;;;;;;4.83;4.53;;;;;;;23.34;66.71;96766.13;5025887;28;20457;-74
2022/06/28 11:43:59;;;;;;;4.00;3.70;;;;;;;23.58;67.39;96759.78;5048121;28;20422;-74
2022/06/28 11:46:28;;;;;;;3.67;3.37;;;;;;;24.12;65.56;96776.19;5046308;28;20465;-74
2022/06/28 11:48:56;;;;;;;3.77;3.50;;;;;;;24.62;65.31;96758.59;5011546;28;20441;-74
2022/06/28 11:51:31;;;;;;;4.50;4.10;;;;;;;24.52;63.88;96768.38;5019440;28;20497;-74
2022/06/28 11:53:59;;;;;;;3.90;3.70;;;;;;;24.34;64.11;96765.16;5032926;28;20524;-74
2022/06/28 11:56:40;;;;;;;3.83;3.57;;;;;;;24.13;63.20;96756.09;5018400;28;20469;-74
2022/06/28 11:59:07;;;;;;;4.20;3.90;;;;;;;23.75;64.13;96736.44;5022372;28;20489;-74
2022/06/28 12:01:39;;;;;;;4.27;3.97;;;;;;;24.13;63.77;96761.50;5045826;28;20516;-75
2022/06/28 12:04:06;;;;;;;4.70;4.30;;;;;;;24.61;62.87;96779.47;5032709;28;20465;-75
2022/06/28 12:06:35;;;;;;;3.93;3.70;;;;;;;24.30;62.81;96778.69;5045789;28;20442;-74